Time,TemperatureF,DewpointF,PressureIn,WindDirection,WindDirectionDegrees,WindSpeedMPH,WindSpeedGustMPH,Humidity,HourlyPrecipIn,Conditions,Clouds,dailyrainin,SolarRadiationWatts/m^2,SoftwareType,DateUTC
2013-08-07 00:01:00,77.9,73.7,29.90,West,267,0.0,0.0,87,0.00,,SCT048,0.00,0.00,VWS V14.00,2013-08-07 04:01:00,
2013-08-07 00:06:00,77.9,73.7,29.90,West,267,0.0,0.0,87,0.00,,SCT048,0.00,0.00,VWS V14.00,2013-08-07 04:06:00,
2013-08-07 00:11:00,77.9,73.7,29.90,West,267,0.0,0.0,87,0.00,,SCT048,0.00,0.00,VWS V14.00,2013-08-07 04:11:00,
2013-08-07 00:16:00,78.0,73.8,29.90,West,267,0.0,0.0,87,0.00,,SCT048,0.00,0.00,VWS V14.00,2013-08-07 04:16:00,
2013-08-07 00:21:00,77.9,73.7,29.90,West,267,0.0,0.0,87,0.00,,SCT048,0.00,0.00,VWS V14.00,2013-08-07 04:21:00,
2013-08-07 00:26:00,77.9,73.7,29.90,West,267,0.0,0.0,87,0.00,,SCT048,0.00,0.00,VWS V14.00,2013-08-07 04:26:00,
2013-08-07 00:31:00,77.9,73.7,29.90,West,267,0.0,0.0,87,0.00,,SCT048,0.00,0.00,VWS V14.00,2013-08-07 04:31:00,
2013-08-07 00:36:00,77.9,73.7,29.90,West,267,0.0,0.0,87,0.00,,SCT048,0.00,0.00,VWS V14.00,2013-08-07 04:36:00,
2013-08-07 00:41:00,77.8,73.6,29.90,West,267,0.0,0.0,87,0.00,,SCT048,0.00,0.00,VWS V14.00,2013-08-07 04:41:00,
2013-08-07 00:46:00,77.7,73.9,29.89,West,267,0.0,0.0,88,0.00,,SCT048,0.00,0.00,VWS V14.00,2013-08-07 04:46:00,
2013-08-07 00:52:00,77.8,74.0,29.89,West,267,0.0,0.0,88,0.00,,SCT048,0.00,0.00,VWS V14.00,2013-08-07 04:52:00,
2013-08-07 00:57:00,77.7,73.9,29.89,West,267,0.0,0.0,88,0.00,,SCT048,0.00,0.00,VWS V14.00,2013-08-07 04:57:00,
2013-08-07 01:02:00,77.6,73.8,29.89,West,267,0.0,1.0,88,0.00,,SCT048,0.00,0.00,VWS V14.00,2013-08-07 05:02:00,
2013-08-07 01:07:00,77.5,73.7,29.89,West,267,0.0,0.0,88,0.00,,SCT048,0.00,0.00,VWS V14.00,2013-08-07 05:07:00,
2013-08-07 01:12:00,77.4,73.6,29.88,West,267,0.0,0.0,88,0.00,,SCT048,0.00,0.00,VWS V14.00,2013-08-07 05:12:00,
2013-08-07 01:17:00,77.5,73.7,29.88,West,267,0.0,0.0,88,0.00,,SCT048,0.00,0.00,VWS V14.00,2013-08-07 05:17:00,
2013-08-07 01:22:00,77.5,73.7,29.88,West,267,0.0,0.0,88,0.00,,SCT048,0.00,0.00,VWS V14.00,2013-08-07 05:22:00,
2013-08-07 01:27:00,77.3,73.5,29.88,West,267,0.0,0.0,88,0.00,,SCT048,0.00,0.00,VWS V14.00,2013-08-07 05:27:00,
2013-08-07 01:32:00,77.2,73.4,29.88,West,267,0.0,0.0,88,0.00,,SCT048,0.00,0.00,VWS V14.00,2013-08-07 05:32:00,
2013-08-07 01:37:00,77.3,73.5,29.88,West,267,0.0,0.0,88,0.00,,SCT048,0.00,0.00,VWS V14.00,2013-08-07 05:37:00,
2013-08-07 01:42:00,77.3,73.5,29.88,West,267,0.0,0.0,88,0.00,,SCT048,0.00,0.00,VWS V14.00,2013-08-07 05:42:00,
2013-08-07 01:47:00,77.4,73.6,29.88,West,267,0.0,0.0,88,0.00,,SCT048,0.00,0.00,VWS V14.00,2013-08-07 05:47:00,
2013-08-07 01:52:00,77.4,73.6,29.88,West,267,0.0,0.0,88,0.00,,SCT048,0.00,0.00,VWS V14.00,2013-08-07 05:52:00,
2013-08-07 01:57:00,77.3,73.5,29.88,West,267,0.0,0.0,88,0.00,,SCT048,0.00,0.00,VWS V14.00,2013-08-07 05:57:00,
2013-08-07 02:02:00,77.3,73.5,29.88,West,267,0.0,0.0,88,0.00,,SCT048,0.00,0.00,VWS V14.00,2013-08-07 06:02:00,
2013-08-07 02:07:00,77.2,73.7,29.88,West,267,0.0,0.0,89,0.00,,SCT048,0.00,0.00,VWS V14.00,2013-08-07 06:07:00,
2013-08-07 02:12:00,77.2,73.7,29.88,West,267,0.0,1.0,89,0.00,,SCT048,0.00,0.00,VWS V14.00,2013-08-07 06:12:00,
2013-08-07 02:17:00,77.2,73.7,29.87,West,267,0.0,0.0,89,0.00,,SCT048,0.00,0.00,VWS V14.00,2013-08-07 06:17:00,
2013-08-07 02:22:00,77.1,73.6,29.87,West,267,0.0,0.0,89,0.00,,SCT048,0.00,0.00,VWS V14.00,2013-08-07 06:22:00,
2013-08-07 02:27:00,77.1,73.6,29.87,West,267,0.0,0.0,89,0.00,,SCT048,0.00,0.00,VWS V14.00,2013-08-07 06:27:00,
2013-08-07 02:32:00,77.0,73.5,29.87,West,267,0.0,0.0,89,0.00,,SCT048,0.00,0.00,VWS V14.00,2013-08-07 06:32:00,
2013-08-07 02:37:00,76.9,73.4,29.87,West,267,0.0,0.0,89,0.00,,SCT048,0.00,0.00,VWS V14.00,2013-08-07 06:37:00,
2013-08-07 02:42:00,76.9,73.4,29.87,West,267,0.0,0.0,89,0.00,,SCT048,0.00,0.00,VWS V14.00,2013-08-07 06:42:00,
2013-08-07 02:47:00,76.9,73.4,29.87,West,267,0.0,0.0,89,0.00,,SCT048,0.00,0.00,VWS V14.00,2013-08-07 06:47:00,
2013-08-07 02:52:00,76.8,73.3,29.87,West,267,0.0,0.0,89,0.00,,SCT048,0.00,0.00,VWS V14.00,2013-08-07 06:52:00,
2013-08-07 02:57:00,76.7,73.2,29.86,West,267,0.0,0.0,89,0.00,,SCT048,0.00,0.00,VWS V14.00,2013-08-07 06:57:00,
2013-08-07 03:02:00,76.6,73.1,29.86,West,267,0.0,0.0,89,0.00,,SCT048,0.00,0.00,VWS V14.00,2013-08-07 07:02:00,
2013-08-07 03:07:00,76.5,73.0,29.86,West,267,0.0,0.0,89,0.00,,SCT048,0.00,0.00,VWS V14.00,2013-08-07 07:07:00,
2013-08-07 03:12:00,76.5,73.0,29.86,West,267,0.0,0.0,89,0.00,,SCT048,0.00,0.00,VWS V14.00,2013-08-07 07:12:00,
2013-08-07 03:17:00,76.4,72.9,29.86,West,267,0.0,0.0,89,0.00,,SCT048,0.00,0.00,VWS V14.00,2013-08-07 07:17:00,
2013-08-07 03:22:00,76.4,72.9,29.86,West,267,0.0,0.0,89,0.00,,SCT048,0.00,0.00,VWS V14.00,2013-08-07 07:22:00,
2013-08-07 03:27:00,76.3,72.8,29.86,West,267,0.0,0.0,89,0.00,,SCT048,0.00,0.00,VWS V14.00,2013-08-07 07:27:00,
2013-08-07 03:33:00,76.3,72.8,29.87,West,267,0.0,0.0,89,0.00,,SCT048,0.00,0.00,VWS V14.00,2013-08-07 07:33:00,
2013-08-07 03:38:00,76.4,72.9,29.86,West,267,0.0,0.0,89,0.00,,SCT048,0.00,0.00,VWS V14.00,2013-08-07 07:38:00,
2013-08-07 03:43:00,76.4,72.9,29.86,West,267,0.0,0.0,89,0.00,,SCT048,0.00,0.00,VWS V14.00,2013-08-07 07:43:00,
2013-08-07 03:48:00,76.6,73.1,29.87,West,267,0.0,0.0,89,0.00,,SCT048,0.00,0.00,VWS V14.00,2013-08-07 07:48:00,
2013-08-07 03:53:00,76.7,73.2,29.86,West,267,0.0,0.0,89,0.00,,SCT048,0.00,0.00,VWS V14.00,2013-08-07 07:53:00,
2013-08-07 03:58:00,76.7,73.2,29.86,West,267,0.0,0.0,89,0.00,,SCT048,0.00,0.00,VWS V14.00,2013-08-07 07:58:00,
2013-08-07 04:03:00,76.8,73.3,29.86,West,267,0.0,0.0,89,0.00,,SCT048,0.00,0.00,VWS V14.00,2013-08-07 08:03:00,
2013-08-07 04:08:00,76.9,73.4,29.86,West,267,0.0,0.0,89,0.00,,SCT048,0.00,0.00,VWS V14.00,2013-08-07 08:08:00,
2013-08-07 04:13:00,76.9,73.4,29.86,West,267,0.0,0.0,89,0.00,,SCT048,0.00,0.00,VWS V14.00,2013-08-07 08:13:00,
2013-08-07 04:18:00,76.9,73.8,29.86,West,267,0.0,0.0,90,0.00,,SCT048,0.00,0.00,VWS V14.00,2013-08-07 08:18:00,
2013-08-07 04:23:00,76.9,73.8,29.86,West,267,0.0,0.0,90,0.00,,SCT048,0.00,0.00,VWS V14.00,2013-08-07 08:23:00,
2013-08-07 04:28:00,76.8,73.7,29.86,West,267,0.0,0.0,90,0.00,,SCT048,0.00,0.00,VWS V14.00,2013-08-07 08:28:00,
2013-08-07 04:33:00,76.8,73.7,29.86,West,267,0.0,0.0,90,0.00,,SCT048,0.00,0.00,VWS V14.00,2013-08-07 08:33:00,
2013-08-07 04:38:00,76.8,73.7,29.86,West,267,0.0,0.0,90,0.00,,SCT048,0.00,0.00,VWS V14.00,2013-08-07 08:38:00,
2013-08-07 04:43:00,76.7,73.6,29.86,West,267,0.0,0.0,90,0.00,,SCT048,0.00,0.00,VWS V14.00,2013-08-07 08:43:00,
2013-08-07 04:48:00,76.9,73.8,29.86,West,267,0.0,0.0,90,0.00,,SCT048,0.00,0.00,VWS V14.00,2013-08-07 08:48:00,
2013-08-07 04:53:00,77.0,73.8,29.86,West,267,0.0,0.0,90,0.00,,SCT048,0.00,0.00,VWS V14.00,2013-08-07 08:53:00,
2013-08-07 04:58:00,77.2,74.0,29.86,West,267,0.0,0.0,90,0.00,,SCT048,0.00,0.00,VWS V14.00,2013-08-07 08:58:00,
2013-08-07 05:03:00,77.1,73.9,29.86,West,267,0.0,0.0,90,0.00,,SCT048,0.00,0.00,VWS V14.00,2013-08-07 09:03:00,
2013-08-07 05:08:00,77.1,73.9,29.86,West,267,0.0,0.0,90,0.00,,SCT048,0.00,0.00,VWS V14.00,2013-08-07 09:08:00,
2013-08-07 05:13:00,77.1,73.9,29.86,West,267,0.0,0.0,90,0.00,,SCT048,0.00,0.00,VWS V14.00,2013-08-07 09:13:00,
2013-08-07 05:18:00,77.1,73.9,29.86,West,267,0.0,0.0,90,0.00,,SCT048,0.00,0.00,VWS V14.00,2013-08-07 09:18:00,
2013-08-07 05:23:00,77.1,73.9,29.86,West,267,0.0,0.0,90,0.00,,SCT048,0.00,0.00,VWS V14.00,2013-08-07 09:23:00,
2013-08-07 05:28:00,77.0,73.8,29.87,West,267,0.0,0.0,90,0.00,,SCT048,0.00,0.00,VWS V14.00,2013-08-07 09:28:00,
2013-08-07 05:33:00,77.0,73.8,29.86,West,267,0.0,0.0,90,0.00,,SCT048,0.00,0.00,VWS V14.00,2013-08-07 09:33:00,
2013-08-07 05:38:00,76.9,73.8,29.86,West,267,0.0,0.0,90,0.00,,SCT048,0.00,0.00,VWS V14.00,2013-08-07 09:38:00,
2013-08-07 05:43:00,77.0,73.8,29.87,West,267,0.0,0.0,90,0.00,,SCT048,0.00,0.00,VWS V14.00,2013-08-07 09:43:00,
2013-08-07 05:48:00,77.1,73.9,29.87,West,267,0.0,0.0,90,0.00,,SCT048,0.00,0.00,VWS V14.00,2013-08-07 09:48:00,
2013-08-07 05:53:00,77.1,73.9,29.87,West,267,0.0,0.0,90,0.00,,SCT048,0.00,0.00,VWS V14.00,2013-08-07 09:53:00,
2013-08-07 05:58:00,77.0,73.8,29.87,West,267,0.0,1.0,90,0.00,,SCT048,0.00,0.00,VWS V14.00,2013-08-07 09:58:00,
2013-08-07 06:03:00,76.9,73.8,29.87,West,267,0.0,0.0,90,0.00,,SCT048,0.00,0.00,VWS V14.00,2013-08-07 10:03:00,
2013-08-07 06:08:00,77.0,73.8,29.87,West,267,0.0,0.0,90,0.00,,SCT048,0.00,0.00,VWS V14.00,2013-08-07 10:08:00,
2013-08-07 06:13:00,77.1,73.9,29.87,West,267,0.0,0.0,90,0.00,,SCT048,0.00,0.00,VWS V14.00,2013-08-07 10:13:00,
2013-08-07 06:18:00,77.1,73.9,29.87,West,267,0.0,0.0,90,0.00,,SCT048,0.00,0.00,VWS V14.00,2013-08-07 10:18:00,
2013-08-07 06:23:00,77.1,73.9,29.87,West,267,0.0,0.0,90,0.00,,SCT048,0.00,0.00,VWS V14.00,2013-08-07 10:23:00,
2013-08-07 06:28:00,77.2,74.0,29.87,West,267,0.0,0.0,90,0.00,,SCT048,0.00,0.00,VWS V14.00,2013-08-07 10:28:00,
2013-08-07 06:33:00,77.1,73.9,29.87,West,267,0.0,0.0,90,0.00,,SCT048,0.00,0.00,VWS V14.00,2013-08-07 10:33:00,
2013-08-07 06:38:00,77.0,73.8,29.88,West,267,0.0,0.0,90,0.00,,SCT048,0.00,0.00,VWS V14.00,2013-08-07 10:38:00,
2013-08-07 06:43:00,77.1,73.9,29.88,West,267,0.0,0.0,90,0.00,,SCT048,0.00,0.00,VWS V14.00,2013-08-07 10:43:00,
2013-08-07 06:48:00,77.1,73.9,29.88,West,267,0.0,0.0,90,0.00,,SCT048,0.00,0.00,VWS V14.00,2013-08-07 10:48:00,
2013-08-07 06:53:00,77.0,73.8,29.88,West,267,0.0,0.0,90,0.00,,SCT048,0.00,0.00,VWS V14.00,2013-08-07 10:53:00,
2013-08-07 06:58:00,77.0,73.8,29.88,West,267,0.0,0.0,90,0.00,,SCT048,0.00,0.00,VWS V14.00,2013-08-07 10:58:00,
2013-08-07 07:03:00,77.1,73.9,29.88,West,267,0.0,0.0,90,0.00,,SCT048,0.00,5.00,VWS V14.00,2013-08-07 11:03:00,
2013-08-07 07:08:00,77.0,73.8,29.88,West,267,0.0,0.0,90,0.00,,SCT048,0.00,7.00,VWS V14.00,2013-08-07 11:08:00,
2013-08-07 07:14:00,77.0,73.8,29.89,West,267,0.0,0.0,90,0.00,,SCT048,0.00,7.00,VWS V14.00,2013-08-07 11:14:00,
2013-08-07 07:19:00,77.2,74.0,29.89,West,267,0.0,0.0,90,0.00,,SCT048,0.00,141.00,VWS V14.00,2013-08-07 11:19:00,
2013-08-07 07:24:00,77.5,74.3,29.89,West,267,0.0,0.0,90,0.00,,SCT048,0.00,179.00,VWS V14.00,2013-08-07 11:24:00,
2013-08-07 07:29:00,77.8,74.6,29.89,West,267,0.0,0.0,90,0.00,,SCT048,0.00,165.00,VWS V14.00,2013-08-07 11:29:00,
2013-08-07 07:34:00,78.0,74.8,29.89,West,267,0.0,0.0,90,0.00,,FEW020CU,0.00,174.00,VWS V14.00,2013-08-07 11:34:00,
2013-08-07 07:39:00,78.2,75.0,29.89,West,267,0.0,0.0,90,0.00,,FEW020CU,0.00,185.00,VWS V14.00,2013-08-07 11:39:00,
2013-08-07 07:44:00,78.4,75.2,29.89,West,267,0.0,0.0,90,0.00,,FEW020CU,0.00,188.00,VWS V14.00,2013-08-07 11:44:00,
2013-08-07 07:49:00,78.8,75.6,29.89,West,267,0.0,0.0,90,0.00,,FEW020CU,0.00,195.00,VWS V14.00,2013-08-07 11:49:00,
2013-08-07 07:54:00,79.4,76.2,29.89,West,267,0.0,0.0,90,0.00,,FEW020CU,0.00,197.00,VWS V14.00,2013-08-07 11:54:00,
2013-08-07 07:59:00,79.8,76.6,29.89,West,267,0.0,0.0,90,0.00,,FEW020CU,0.00,199.00,VWS V14.00,2013-08-07 11:59:00,
2013-08-07 08:04:00,80.0,76.8,29.90,West,267,0.0,1.0,90,0.00,,FEW020CU,0.00,200.00,VWS V14.00,2013-08-07 12:04:00,
2013-08-07 08:09:00,80.3,76.8,29.90,West,267,0.0,0.0,89,0.00,,FEW020CU,0.00,199.00,VWS V14.00,2013-08-07 12:09:00,
2013-08-07 08:14:00,80.7,77.2,29.90,West,267,0.0,1.0,89,0.00,,FEW020CU,0.00,243.00,VWS V14.00,2013-08-07 12:14:00,
2013-08-07 08:19:00,81.2,77.3,29.90,West,267,0.0,2.0,88,0.00,,FEW020CU,0.00,243.00,VWS V14.00,2013-08-07 12:19:00,
2013-08-07 08:24:00,81.6,77.4,29.90,West,267,0.0,2.0,87,0.00,,FEW020CU,0.00,185.00,VWS V14.00,2013-08-07 12:24:00,
2013-08-07 08:29:00,82.1,77.5,29.91,West,267,0.0,0.0,86,0.00,,FEW020CU,0.00,107.00,VWS V14.00,2013-08-07 12:29:00,
2013-08-07 08:34:00,82.4,77.4,29.91,West,267,1.0,2.0,85,0.00,,FEW020CU,0.00,174.00,VWS V14.00,2013-08-07 12:34:00,
2013-08-07 08:39:00,82.8,77.5,29.91,West,269,1.0,1.0,84,0.00,,FEW020CU,0.00,172.00,VWS V14.00,2013-08-07 12:39:00,
2013-08-07 08:44:00,83.1,77.4,29.91,West,269,5.0,5.0,83,0.00,,FEW020CU,0.00,156.00,VWS V14.00,2013-08-07 12:44:00,
2013-08-07 08:49:00,83.4,77.3,29.91,West,268,5.0,5.0,82,0.00,,FEW020CU,0.00,171.00,VWS V14.00,2013-08-07 12:49:00,
2013-08-07 08:54:00,83.7,77.2,29.91,West,268,2.0,5.0,81,0.00,,FEW020CU,0.00,54.00,VWS V14.00,2013-08-07 12:54:00,
2013-08-07 08:59:00,83.6,77.2,29.91,WSW,254,0.0,4.0,81,0.00,,FEW020CU,0.00,58.00,VWS V14.00,2013-08-07 12:59:00,
2013-08-07 09:04:00,83.3,76.9,29.91,WSW,239,0.0,6.0,81,0.00,,FEW020CU,0.00,72.00,VWS V14.00,2013-08-07 13:04:00,
2013-08-07 09:09:00,83.2,77.1,29.91,WSW,237,4.0,6.0,82,0.00,,FEW020CU,0.00,214.00,VWS V14.00,2013-08-07 13:09:00,
2013-08-07 09:14:00,83.3,77.2,29.91,WSW,237,0.0,1.0,82,0.00,,FEW020CU,0.00,69.00,VWS V14.00,2013-08-07 13:14:00,
2013-08-07 09:19:00,83.5,77.4,29.91,WSW,237,0.0,1.0,82,0.00,,FEW020CU,0.00,155.00,VWS V14.00,2013-08-07 13:19:00,
2013-08-07 09:24:00,83.6,77.2,29.91,WSW,237,0.0,3.0,81,0.00,,FEW020CU,0.00,72.00,VWS V14.00,2013-08-07 13:24:00,
2013-08-07 09:29:00,83.7,77.2,29.91,SW,229,3.0,4.0,81,0.00,,FEW020CU,0.00,81.00,VWS V14.00,2013-08-07 13:29:00,
2013-08-07 09:34:00,83.8,77.0,29.91,SW,229,1.0,5.0,80,0.00,,FEW020CU,0.00,72.00,VWS V14.00,2013-08-07 13:34:00,
2013-08-07 09:39:00,83.8,77.0,29.91,SW,229,0.0,0.0,80,0.00,,FEW020CU,0.00,74.00,VWS V14.00,2013-08-07 13:39:00,
2013-08-07 09:45:00,84.0,77.2,29.91,SW,229,0.0,1.0,80,0.00,,FEW020CU,0.00,77.00,VWS V14.00,2013-08-07 13:45:00,
2013-08-07 09:50:00,84.1,77.6,29.91,SW,228,0.0,3.0,81,0.00,,FEW020CU,0.00,84.00,VWS V14.00,2013-08-07 13:50:00,
2013-08-07 09:55:00,83.9,78.2,29.91,SW,228,0.0,1.0,83,0.00,,FEW020CU,0.00,128.00,VWS V14.00,2013-08-07 13:55:00,
2013-08-07 10:00:00,83.9,78.2,29.91,SW,228,3.0,3.0,83,0.00,,FEW020CU,0.00,90.00,VWS V14.00,2013-08-07 14:00:00,
2013-08-07 10:05:00,83.8,78.1,29.91,SW,223,4.0,7.0,83,0.00,,FEW020CU,0.00,79.00,VWS V14.00,2013-08-07 14:05:00,
2013-08-07 10:10:00,83.7,77.2,29.91,SW,223,0.0,4.0,81,0.00,,FEW020CU,0.00,100.00,VWS V14.00,2013-08-07 14:10:00,
2013-08-07 10:15:00,83.7,77.2,29.92,SSW,212,6.0,8.0,81,0.00,,FEW020CU,0.00,113.00,VWS V14.00,2013-08-07 14:15:00,
2013-08-07 10:20:00,83.8,76.6,29.91,SSW,205,0.0,3.0,79,0.00,,FEW020CU,0.00,246.00,VWS V14.00,2013-08-07 14:20:00,
2013-08-07 10:25:00,84.4,76.8,29.91,South,189,3.0,6.0,78,0.00,,FEW020CU,0.00,221.00,VWS V14.00,2013-08-07 14:25:00,
2013-08-07 10:30:00,85.1,77.1,29.92,South,184,0.0,5.0,77,0.00,,FEW020CU,0.00,118.00,VWS V14.00,2013-08-07 14:30:00,
2013-08-07 10:35:00,85.4,76.6,29.92,South,183,5.0,5.0,75,0.00,,SCT030,0.00,90.00,VWS V14.00,2013-08-07 14:35:00,
2013-08-07 10:40:00,85.4,76.6,29.92,SSE,162,4.0,10.0,75,0.00,,SCT030,0.00,114.00,VWS V14.00,2013-08-07 14:40:00,
2013-08-07 10:45:00,85.7,77.3,29.92,South,178,9.0,10.0,76,0.00,,SCT030,0.00,225.00,VWS V14.00,2013-08-07 14:45:00,
2013-08-07 10:50:00,85.9,76.2,29.92,South,184,4.0,6.0,73,0.00,,SCT030,0.00,206.00,VWS V14.00,2013-08-07 14:50:00,
2013-08-07 10:55:00,86.3,76.6,29.92,South,184,2.0,5.0,73,0.00,,SCT030,0.00,281.00,VWS V14.00,2013-08-07 14:55:00,
2013-08-07 11:00:00,86.5,76.8,29.92,South,188,6.0,7.0,73,0.00,,SCT030,0.00,130.00,VWS V14.00,2013-08-07 15:00:00,
2013-08-07 11:05:00,86.4,75.9,29.92,South,173,4.0,11.0,71,0.00,,SCT030,0.00,151.00,VWS V14.00,2013-08-07 15:05:00,
2013-08-07 11:10:00,86.4,76.3,29.92,South,181,3.0,6.0,72,0.00,,SCT030,0.00,309.00,VWS V14.00,2013-08-07 15:10:00,
2013-08-07 11:15:00,86.8,75.8,29.92,SSE,156,11.0,13.0,70,0.00,,SCT030,0.00,294.00,VWS V14.00,2013-08-07 15:15:00,
2013-08-07 11:20:00,86.9,75.5,29.92,South,178,7.0,12.0,69,0.00,,SCT030,0.00,149.00,VWS V14.00,2013-08-07 15:20:00,
2013-08-07 11:25:00,87.1,76.6,29.92,South,183,5.0,5.0,71,0.00,,SCT030,0.00,267.00,VWS V14.00,2013-08-07 15:25:00,
2013-08-07 11:30:00,87.5,76.1,29.92,South,186,6.0,11.0,69,0.00,,SCT030,0.00,251.00,VWS V14.00,2013-08-07 15:30:00,
2013-08-07 11:35:00,87.7,75.4,29.92,SSW,210,5.0,10.0,67,0.00,,SCT030CU,0.00,232.00,VWS V14.00,2013-08-07 15:35:00,
2013-08-07 11:40:00,87.7,75.8,29.91,SSW,208,0.0,5.0,68,0.00,,SCT030CU,0.00,225.00,VWS V14.00,2013-08-07 15:40:00,
2013-08-07 11:45:00,88.0,77.0,29.92,SW,218,1.0,1.0,70,0.00,,SCT030CU,0.00,97.00,VWS V14.00,2013-08-07 15:45:00,
2013-08-07 11:50:00,88.1,76.2,29.91,South,184,6.0,7.0,68,0.00,,SCT030CU,0.00,116.00,VWS V14.00,2013-08-07 15:50:00,
2013-08-07 11:55:00,87.6,75.7,29.91,SSE,154,6.0,7.0,68,0.00,,SCT030CU,0.00,169.00,VWS V14.00,2013-08-07 15:55:00,
2013-08-07 12:00:00,87.2,76.2,29.91,SSE,168,6.0,6.0,70,0.00,,SCT030CU,0.00,114.00,VWS V14.00,2013-08-07 16:00:00,
2013-08-07 12:05:00,87.0,77.3,29.91,South,186,12.0,12.0,73,0.00,,SCT030CU,0.00,211.00,VWS V14.00,2013-08-07 16:05:00,
2013-08-07 12:10:00,87.1,77.4,29.91,South,174,5.0,7.0,73,0.00,,SCT030CU,0.00,267.00,VWS V14.00,2013-08-07 16:10:00,
2013-08-07 12:15:00,87.2,77.5,29.91,SSE,150,10.0,10.0,73,0.00,,SCT030CU,0.00,278.00,VWS V14.00,2013-08-07 16:15:00,
2013-08-07 12:20:00,87.3,76.3,29.91,SSW,201,4.0,12.0,70,0.00,,SCT030CU,0.00,121.00,VWS V14.00,2013-08-07 16:20:00,
2013-08-07 12:25:00,87.0,76.9,29.91,South,169,5.0,9.0,72,0.00,,SCT030CU,0.00,114.00,VWS V14.00,2013-08-07 16:25:00,
2013-08-07 12:30:00,86.6,76.9,29.91,South,171,6.0,14.0,73,0.00,,SCT030CU,0.00,213.00,VWS V14.00,2013-08-07 16:30:00,
2013-08-07 12:35:00,86.6,76.5,29.91,South,177,8.0,14.0,72,0.00,,BKN024CU,0.00,253.00,VWS V14.00,2013-08-07 16:35:00,
2013-08-07 12:40:00,86.7,76.6,29.91,South,180,7.0,11.0,72,0.00,,BKN024CU,0.00,218.00,VWS V14.00,2013-08-07 16:40:00,
2013-08-07 12:45:00,86.9,76.4,29.92,SSE,165,5.0,17.0,71,0.00,,BKN024CU,0.00,216.00,VWS V14.00,2013-08-07 16:45:00,
2013-08-07 12:50:00,86.9,75.9,29.92,SSW,194,12.0,12.0,70,0.00,,BKN024CU,0.00,105.00,VWS V14.00,2013-08-07 16:50:00,
2013-08-07 12:55:00,86.4,75.9,29.92,South,180,8.0,14.0,71,0.00,,BKN024CU,0.00,223.00,VWS V14.00,2013-08-07 16:55:00,
2013-08-07 13:00:00,86.6,76.9,29.91,SSW,194,4.0,13.0,73,0.00,,BKN024CU,0.00,220.00,VWS V14.00,2013-08-07 17:00:00,
2013-08-07 13:05:00,86.6,76.5,29.91,South,183,6.0,10.0,72,0.00,,BKN024CU,0.00,95.00,VWS V14.00,2013-08-07 17:05:00,
2013-08-07 13:10:00,86.3,76.2,29.91,SSW,204,4.0,10.0,72,0.00,,BKN024CU,0.00,209.00,VWS V14.00,2013-08-07 17:10:00,
2013-08-07 13:15:00,86.6,76.1,29.91,SSW,200,7.0,12.0,71,0.00,,BKN024CU,0.00,216.00,VWS V14.00,2013-08-07 17:15:00,
2013-08-07 13:20:00,86.7,75.3,29.91,South,179,13.0,14.0,69,0.00,,BKN024CU,0.00,220.00,VWS V14.00,2013-08-07 17:20:00,
2013-08-07 13:25:00,86.7,75.8,29.92,South,184,9.0,11.0,70,0.00,,BKN024CU,0.00,162.00,VWS V14.00,2013-08-07 17:25:00,
2013-08-07 13:30:00,86.8,76.3,29.92,SSE,150,7.0,14.0,71,0.00,,BKN024CU,0.00,174.00,VWS V14.00,2013-08-07 17:30:00,
2013-08-07 13:35:00,86.6,76.5,29.92,SSE,162,5.0,13.0,72,0.00,,BKN024CB,0.00,292.00,VWS V14.00,2013-08-07 17:35:00,
2013-08-07 13:40:00,86.6,76.5,29.91,SSE,155,15.0,15.0,72,0.00,,BKN024CB,0.00,221.00,VWS V14.00,2013-08-07 17:40:00,
2013-08-07 13:46:00,86.6,76.1,29.91,SSE,149,11.0,11.0,71,0.00,,BKN024CB,0.00,148.00,VWS V14.00,2013-08-07 17:46:00,
2013-08-07 13:50:00,86.2,75.7,29.91,SSE,158,4.0,12.0,71,0.00,,BKN024CB,0.00,169.00,VWS V14.00,2013-08-07 17:50:00,
2013-08-07 13:55:00,86.1,75.6,29.91,SSE,150,6.0,9.0,71,0.00,,BKN024CB,0.00,190.00,VWS V14.00,2013-08-07 17:55:00,
2013-08-07 14:01:00,86.5,75.6,29.91,SSE,161,6.0,13.0,70,0.00,,BKN024CB,0.00,183.00,VWS V14.00,2013-08-07 18:01:00,
2013-08-07 14:06:00,87.1,76.1,29.91,South,184,7.0,7.0,70,0.00,,BKN024CB,0.00,239.00,VWS V14.00,2013-08-07 18:06:00,
2013-08-07 14:11:00,87.7,75.8,29.91,South,184,4.0,11.0,68,0.00,,BKN024CB,0.00,239.00,VWS V14.00,2013-08-07 18:11:00,
2013-08-07 14:16:00,87.7,74.9,29.91,South,185,12.0,16.0,66,0.00,,BKN024CB,0.00,229.00,VWS V14.00,2013-08-07 18:16:00,
2013-08-07 14:21:00,87.3,75.4,29.91,South,172,7.0,15.0,68,0.00,,BKN024CB,0.00,239.00,VWS V14.00,2013-08-07 18:21:00,
2013-08-07 14:26:00,87.2,75.8,29.91,SSW,196,6.0,11.0,69,0.00,,BKN024CB,0.00,236.00,VWS V14.00,2013-08-07 18:26:00,
2013-08-07 14:31:00,87.2,75.4,29.91,SSW,205,12.0,15.0,68,0.00,,BKN024CB,0.00,230.00,VWS V14.00,2013-08-07 18:31:00,
2013-08-07 14:36:00,87.0,75.2,29.90,SSE,160,7.0,12.0,68,0.00,,BKN024CB,0.00,230.00,VWS V14.00,2013-08-07 18:36:00,
2013-08-07 14:41:00,87.1,75.7,29.91,South,191,3.0,12.0,69,0.00,,BKN024CB,0.00,227.00,VWS V14.00,2013-08-07 18:41:00,
2013-08-07 14:46:00,87.3,75.4,29.91,SSW,200,10.0,12.0,68,0.00,,BKN024CB,0.00,211.00,VWS V14.00,2013-08-07 18:46:00,
2013-08-07 14:51:00,87.2,75.4,29.91,South,174,6.0,13.0,68,0.00,,BKN024CB,0.00,248.00,VWS V14.00,2013-08-07 18:51:00,
2013-08-07 14:56:00,87.2,75.8,29.90,South,182,7.0,13.0,69,0.00,,BKN024CB,0.00,260.00,VWS V14.00,2013-08-07 18:56:00,
2013-08-07 15:01:00,87.6,76.2,29.90,SSW,211,6.0,11.0,69,0.00,,BKN024CB,0.00,269.00,VWS V14.00,2013-08-07 19:01:00,
2013-08-07 15:06:00,88.0,76.1,29.90,South,187,4.0,11.0,68,0.00,,BKN024CB,0.00,281.00,VWS V14.00,2013-08-07 19:06:00,
2013-08-07 15:11:00,88.2,75.9,29.90,SSW,202,5.0,11.0,67,0.00,,BKN024CB,0.00,169.00,VWS V14.00,2013-08-07 19:11:00,
2013-08-07 15:16:00,88.4,75.6,29.89,South,190,7.0,13.0,66,0.00,,BKN024CB,0.00,197.00,VWS V14.00,2013-08-07 19:16:00,
2013-08-07 15:21:00,88.1,75.3,29.90,SSW,201,5.0,10.0,66,0.00,,BKN024CB,0.00,153.00,VWS V14.00,2013-08-07 19:21:00,
2013-08-07 15:26:00,87.9,75.1,29.89,SSW,192,6.0,11.0,66,0.00,,BKN024CB,0.00,142.00,VWS V14.00,2013-08-07 19:26:00,
2013-08-07 15:31:00,87.7,75.8,29.89,South,178,9.0,12.0,68,0.00,,BKN024CB,0.00,167.00,VWS V14.00,2013-08-07 19:31:00,
2013-08-07 15:36:00,87.8,75.9,29.89,South,176,0.0,6.0,68,0.00,,BKN100,0.00,156.00,VWS V14.00,2013-08-07 19:36:00,
2013-08-07 15:41:00,87.9,76.0,29.89,South,184,4.0,8.0,68,0.00,,BKN100,0.00,139.00,VWS V14.00,2013-08-07 19:41:00,
2013-08-07 15:46:00,87.9,76.0,29.88,South,180,4.0,10.0,68,0.00,,BKN100,0.00,130.00,VWS V14.00,2013-08-07 19:46:00,
2013-08-07 15:51:00,87.6,75.7,29.88,South,178,7.0,13.0,68,0.00,,BKN100,0.00,135.00,VWS V14.00,2013-08-07 19:51:00,
2013-08-07 15:56:00,87.3,75.9,29.88,South,180,2.0,6.0,69,0.00,,BKN100,0.00,135.00,VWS V14.00,2013-08-07 19:56:00,
2013-08-07 16:01:00,87.3,75.9,29.88,SSE,157,8.0,13.0,69,0.00,,BKN100,0.00,134.00,VWS V14.00,2013-08-07 20:01:00,
2013-08-07 16:06:00,87.2,75.8,29.88,SSE,167,4.0,7.0,69,0.00,,BKN100,0.00,151.00,VWS V14.00,2013-08-07 20:06:00,
2013-08-07 16:11:00,87.3,75.9,29.88,South,182,3.0,10.0,69,0.00,,BKN100,0.00,178.00,VWS V14.00,2013-08-07 20:11:00,
2013-08-07 16:16:00,87.9,76.9,29.88,SSE,153,5.0,10.0,70,0.00,,BKN100,0.00,248.00,VWS V14.00,2013-08-07 20:16:00,
2013-08-07 16:21:00,88.1,76.2,29.88,SSW,201,7.0,9.0,68,0.00,,BKN100,0.00,146.00,VWS V14.00,2013-08-07 20:21:00,
2013-08-07 16:26:00,88.2,76.3,29.88,South,184,0.0,10.0,68,0.00,,BKN100,0.00,174.00,VWS V14.00,2013-08-07 20:26:00,
2013-08-07 16:31:00,88.3,76.4,29.88,SSE,148,2.0,11.0,68,0.00,,BKN100,0.00,118.00,VWS V14.00,2013-08-07 20:31:00,
2013-08-07 16:36:00,87.6,75.7,29.88,SSE,161,11.0,11.0,68,0.00,,BKN100,0.00,95.00,VWS V14.00,2013-08-07 20:36:00,
2013-08-07 16:41:00,87.5,75.6,29.88,South,179,11.0,13.0,68,0.00,,BKN100,0.00,141.00,VWS V14.00,2013-08-07 20:41:00,
2013-08-07 16:46:00,87.3,75.9,29.88,SE,132,6.0,12.0,69,0.00,,BKN100,0.00,193.00,VWS V14.00,2013-08-07 20:46:00,
2013-08-07 16:51:00,87.2,75.8,29.88,SSE,158,1.0,12.0,69,0.00,,BKN100,0.00,192.00,VWS V14.00,2013-08-07 20:51:00,
2013-08-07 16:56:00,87.3,74.6,29.88,SSE,159,6.0,14.0,66,0.00,,BKN100,0.00,188.00,VWS V14.00,2013-08-07 20:56:00,
2013-08-07 17:01:00,87.4,75.6,29.88,South,178,5.0,11.0,68,0.00,,BKN100,0.00,186.00,VWS V14.00,2013-08-07 21:01:00,
2013-08-07 17:06:00,87.5,76.1,29.88,South,188,7.0,13.0,69,0.00,,BKN100,0.00,179.00,VWS V14.00,2013-08-07 21:06:00,
2013-08-07 17:11:00,87.5,75.6,29.88,SSE,157,11.0,11.0,68,0.00,,BKN100,0.00,172.00,VWS V14.00,2013-08-07 21:11:00,
2013-08-07 17:16:00,87.4,75.1,29.89,South,171,6.0,12.0,67,0.00,,BKN100,0.00,116.00,VWS V14.00,2013-08-07 21:16:00,
2013-08-07 17:21:00,87.2,75.4,29.89,South,182,9.0,17.0,68,0.00,,BKN100,0.00,113.00,VWS V14.00,2013-08-07 21:21:00,
2013-08-07 17:26:00,87.0,73.8,29.89,SSE,155,12.0,12.0,65,0.00,,BKN100,0.00,88.00,VWS V14.00,2013-08-07 21:26:00,
2013-08-07 17:31:00,87.0,74.3,29.89,South,179,10.0,11.0,66,0.00,,BKN100,0.00,100.00,VWS V14.00,2013-08-07 21:31:00,
2013-08-07 17:36:00,86.8,74.5,29.89,South,181,9.0,9.0,67,0.00,,BKN100,0.00,74.00,VWS V14.00,2013-08-07 21:36:00,
2013-08-07 17:42:00,86.5,74.7,29.89,SSE,150,6.0,9.0,68,0.00,,BKN100,0.00,114.00,VWS V14.00,2013-08-07 21:42:00,
2013-08-07 17:46:00,86.6,75.2,29.88,SSE,163,5.0,5.0,69,0.00,,BKN100,0.00,171.00,VWS V14.00,2013-08-07 21:46:00,
2013-08-07 17:52:00,87.2,75.8,29.88,South,180,10.0,14.0,69,0.00,,BKN100,0.00,90.00,VWS V14.00,2013-08-07 21:52:00,
2013-08-07 17:57:00,87.2,75.4,29.89,South,174,4.0,11.0,68,0.00,,BKN100,0.00,118.00,VWS V14.00,2013-08-07 21:57:00,
2013-08-07 18:02:00,87.0,75.2,29.89,SSE,147,7.0,13.0,68,0.00,,BKN100,0.00,93.00,VWS V14.00,2013-08-07 22:02:00,
2013-08-07 18:07:00,86.8,75.0,29.89,South,184,5.0,8.0,68,0.00,,BKN100,0.00,127.00,VWS V14.00,2013-08-07 22:07:00,
2013-08-07 18:12:00,86.7,74.9,29.88,South,182,3.0,7.0,68,0.00,,BKN100,0.00,153.00,VWS V14.00,2013-08-07 22:12:00,
2013-08-07 18:17:00,86.8,75.4,29.88,South,180,7.0,9.0,69,0.00,,BKN100,0.00,149.00,VWS V14.00,2013-08-07 22:17:00,
2013-08-07 18:22:00,86.8,75.0,29.88,South,185,6.0,10.0,68,0.00,,BKN100,0.00,142.00,VWS V14.00,2013-08-07 22:22:00,
2013-08-07 18:27:00,86.6,74.8,29.88,SSE,165,6.0,10.0,68,0.00,,BKN100,0.00,79.00,VWS V14.00,2013-08-07 22:27:00,
2013-08-07 18:32:00,86.4,75.0,29.88,SSE,166,9.0,12.0,69,0.00,,SCT024,0.00,46.00,VWS V14.00,2013-08-07 22:32:00,
2013-08-07 18:37:00,86.0,74.7,29.88,SSE,163,6.0,10.0,69,0.00,,SCT024,0.00,46.00,VWS V14.00,2013-08-07 22:37:00,
2013-08-07 18:42:00,85.6,75.1,29.88,South,182,6.0,12.0,71,0.00,,SCT024,0.00,44.00,VWS V14.00,2013-08-07 22:42:00,
2013-08-07 18:47:00,85.4,74.9,29.88,SSE,162,7.0,10.0,71,0.00,,SCT024,0.00,33.00,VWS V14.00,2013-08-07 22:47:00,
2013-08-07 18:52:00,85.2,75.2,29.88,South,177,3.0,5.0,72,0.00,,SCT024,0.00,30.00,VWS V14.00,2013-08-07 22:52:00,
2013-08-07 18:57:00,85.0,75.0,29.88,SSE,165,10.0,10.0,72,0.00,,SCT024,0.00,28.00,VWS V14.00,2013-08-07 22:57:00,
2013-08-07 19:02:00,84.9,75.3,29.87,South,184,4.0,12.0,73,0.00,,SCT024,0.00,42.00,VWS V14.00,2013-08-07 23:02:00,
2013-08-07 19:07:00,84.8,75.6,29.87,South,169,1.0,9.0,74,0.00,,SCT024,0.00,23.00,VWS V14.00,2013-08-07 23:07:00,
2013-08-07 19:12:00,84.8,75.6,29.87,SSE,164,4.0,7.0,74,0.00,,SCT024,0.00,18.00,VWS V14.00,2013-08-07 23:12:00,
2013-08-07 19:17:00,84.7,75.5,29.88,South,170,6.0,7.0,74,0.00,,SCT024,0.00,18.00,VWS V14.00,2013-08-07 23:17:00,
2013-08-07 19:22:00,84.6,75.4,29.88,South,173,7.0,10.0,74,0.00,,SCT024,0.00,12.00,VWS V14.00,2013-08-07 23:22:00,
2013-08-07 19:27:00,84.4,75.6,29.88,South,171,6.0,6.0,75,0.00,,SCT024,0.00,11.00,VWS V14.00,2013-08-07 23:27:00,
2013-08-07 19:32:00,84.3,75.5,29.88,South,178,4.0,7.0,75,0.00,,SCT024,0.00,9.00,VWS V14.00,2013-08-07 23:32:00,
2013-08-07 19:37:00,84.1,75.3,29.88,SSE,159,6.0,10.0,75,0.00,,SCT024,0.00,7.00,VWS V14.00,2013-08-07 23:37:00,
2013-08-07 19:42:00,84.0,75.2,29.88,SSE,156,8.0,9.0,75,0.00,,SCT024,0.00,7.00,VWS V14.00,2013-08-07 23:42:00,
2013-08-07 19:47:00,83.9,75.1,29.88,SSE,167,6.0,7.0,75,0.00,,SCT024,0.00,5.00,VWS V14.00,2013-08-07 23:47:00,
2013-08-07 19:52:00,83.8,75.4,29.88,South,175,0.0,4.0,76,0.00,,SCT024,0.00,0.00,VWS V14.00,2013-08-07 23:52:00,
2013-08-07 19:57:00,83.7,75.3,29.88,South,185,11.0,11.0,76,0.00,,SCT024,0.00,0.00,VWS V14.00,2013-08-07 23:57:00,
2013-08-07 20:02:00,83.6,75.2,29.88,South,180,2.0,5.0,76,0.00,,SCT024,0.00,0.00,VWS V14.00,2013-08-08 00:02:00,
2013-08-07 20:07:00,83.6,75.6,29.88,SSE,168,6.0,7.0,77,0.00,,SCT024,0.00,0.00,VWS V14.00,2013-08-08 00:07:00,
2013-08-07 20:12:00,83.5,75.5,29.88,SSE,164,5.0,6.0,77,0.00,,SCT024,0.00,0.00,VWS V14.00,2013-08-08 00:12:00,
2013-08-07 20:17:00,83.4,75.8,29.88,SSE,167,5.0,8.0,78,0.00,,SCT024,0.00,0.00,VWS V14.00,2013-08-08 00:17:00,
2013-08-07 20:22:00,83.3,75.7,29.88,South,170,6.0,7.0,78,0.00,,SCT024,0.00,0.00,VWS V14.00,2013-08-08 00:22:00,
2013-08-07 20:27:00,83.3,75.7,29.88,South,169,5.0,6.0,78,0.00,,SCT024,0.00,0.00,VWS V14.00,2013-08-08 00:27:00,
2013-08-07 20:32:00,83.2,76.0,29.88,SSE,166,4.0,5.0,79,0.00,,SCT024,0.00,0.00,VWS V14.00,2013-08-08 00:32:00,
2013-08-07 20:37:00,83.2,76.0,29.89,SSE,167,4.0,7.0,79,0.00,,SCT024,0.00,0.00,VWS V14.00,2013-08-08 00:37:00,
2013-08-07 20:42:00,83.1,75.9,29.89,SSE,165,2.0,5.0,79,0.00,,SCT024,0.00,0.00,VWS V14.00,2013-08-08 00:42:00,
2013-08-07 20:47:00,83.0,75.4,29.89,South,178,7.0,7.0,78,0.00,,SCT024,0.00,0.00,VWS V14.00,2013-08-08 00:47:00,
2013-08-07 20:53:00,83.1,75.5,29.89,South,177,0.0,4.0,78,0.00,,SCT024,0.00,0.00,VWS V14.00,2013-08-08 00:53:00,
2013-08-07 20:58:00,83.1,75.5,29.89,South,175,3.0,7.0,78,0.00,,SCT024,0.00,0.00,VWS V14.00,2013-08-08 00:58:00,
2013-08-07 21:03:00,83.1,75.5,29.89,South,180,6.0,6.0,78,0.00,,SCT024,0.00,0.00,VWS V14.00,2013-08-08 01:03:00,
2013-08-07 21:08:00,83.1,75.5,29.90,South,175,0.0,6.0,78,0.00,,SCT024,0.00,0.00,VWS V14.00,2013-08-08 01:08:00,
2013-08-07 21:13:00,83.1,75.5,29.90,South,177,2.0,7.0,78,0.00,,SCT024,0.00,0.00,VWS V14.00,2013-08-08 01:13:00,
2013-08-07 21:18:00,83.0,75.4,29.90,South,175,3.0,7.0,78,0.00,,SCT024,0.00,0.00,VWS V14.00,2013-08-08 01:18:00,
2013-08-07 21:23:00,83.0,75.4,29.90,South,173,4.0,4.0,78,0.00,,SCT024,0.00,0.00,VWS V14.00,2013-08-08 01:23:00,
2013-08-07 21:28:00,83.0,75.4,29.90,South,173,1.0,4.0,78,0.00,,SCT024,0.00,0.00,VWS V14.00,2013-08-08 01:28:00,
2013-08-07 21:33:00,83.0,75.4,29.90,South,173,0.0,5.0,78,0.00,,SCT024,0.00,0.00,VWS V14.00,2013-08-08 01:33:00,
2013-08-07 21:38:00,83.0,75.4,29.91,South,175,3.0,4.0,78,0.00,,SCT024,0.00,0.00,VWS V14.00,2013-08-08 01:38:00,
2013-08-07 21:43:00,83.0,75.4,29.91,South,175,3.0,5.0,78,0.00,,SCT024,0.00,0.00,VWS V14.00,2013-08-08 01:43:00,
2013-08-07 21:48:00,83.0,75.4,29.91,South,175,3.0,4.0,78,0.00,,SCT024,0.00,0.00,VWS V14.00,2013-08-08 01:48:00,
2013-08-07 21:53:00,83.1,75.5,29.91,South,175,0.0,4.0,78,0.00,,SCT024,0.00,0.00,VWS V14.00,2013-08-08 01:53:00,
2013-08-07 21:58:00,83.1,75.5,29.91,South,175,0.0,0.0,78,0.00,,SCT024,0.00,0.00,VWS V14.00,2013-08-08 01:58:00,
2013-08-07 22:03:00,83.1,75.9,29.91,South,175,0.0,0.0,79,0.00,,SCT024,0.00,0.00,VWS V14.00,2013-08-08 02:03:00,
2013-08-07 22:08:00,83.1,75.9,29.92,South,175,0.0,3.0,79,0.00,,SCT024,0.00,0.00,VWS V14.00,2013-08-08 02:08:00,
2013-08-07 22:13:00,83.1,76.3,29.92,South,175,0.0,0.0,80,0.00,,SCT024,0.00,0.00,VWS V14.00,2013-08-08 02:13:00,
2013-08-07 22:18:00,83.1,76.3,29.92,South,175,3.0,4.0,80,0.00,,SCT024,0.00,0.00,VWS V14.00,2013-08-08 02:18:00,
2013-08-07 22:23:00,83.0,76.2,29.93,South,175,0.0,0.0,80,0.00,,SCT024,0.00,0.00,VWS V14.00,2013-08-08 02:23:00,
2013-08-07 22:28:00,83.0,76.2,29.93,South,176,1.0,4.0,80,0.00,,SCT024,0.00,0.00,VWS V14.00,2013-08-08 02:28:00,
2013-08-07 22:33:00,82.9,76.1,29.93,South,176,3.0,7.0,80,0.00,,SCT024,0.00,0.00,VWS V14.00,2013-08-08 02:33:00,
2013-08-07 22:38:00,82.9,76.1,29.93,South,176,4.0,5.0,80,0.00,,SCT024,0.00,0.00,VWS V14.00,2013-08-08 02:38:00,
2013-08-07 22:43:00,82.9,76.1,29.93,South,177,0.0,0.0,80,0.00,,SCT024,0.00,0.00,VWS V14.00,2013-08-08 02:43:00,
2013-08-07 22:48:00,82.9,76.1,29.94,South,178,0.0,5.0,80,0.00,,SCT024,0.00,0.00,VWS V14.00,2013-08-08 02:48:00,
2013-08-07 22:53:00,82.9,76.1,29.93,South,178,0.0,1.0,80,0.00,,SCT024,0.00,0.00,VWS V14.00,2013-08-08 02:53:00,
2013-08-07 22:58:00,82.9,76.1,29.94,South,178,0.0,3.0,80,0.00,,SCT024,0.00,0.00,VWS V14.00,2013-08-08 02:58:00,
2013-08-07 23:03:00,82.8,76.0,29.94,South,178,0.0,4.0,80,0.00,,SCT024,0.00,0.00,VWS V14.00,2013-08-08 03:03:00,
2013-08-07 23:08:00,82.8,76.0,29.93,South,178,0.0,0.0,80,0.00,,SCT024,0.00,0.00,VWS V14.00,2013-08-08 03:08:00,
2013-08-07 23:13:00,82.7,75.9,29.93,South,178,0.0,1.0,80,0.00,,SCT024,0.00,0.00,VWS V14.00,2013-08-08 03:13:00,
2013-08-07 23:18:00,82.7,75.9,29.94,South,178,1.0,3.0,80,0.00,,SCT024,0.00,0.00,VWS V14.00,2013-08-08 03:18:00,
2013-08-07 23:23:00,82.6,75.8,29.94,South,178,0.0,0.0,80,0.00,,SCT024,0.00,0.00,VWS V14.00,2013-08-08 03:23:00,
2013-08-07 23:28:00,82.5,76.1,29.94,South,178,0.0,3.0,81,0.00,,SCT024,0.00,0.00,VWS V14.00,2013-08-08 03:28:00,
2013-08-07 23:33:00,82.5,76.1,29.94,South,176,3.0,6.0,81,0.00,,SCT024,0.00,0.00,VWS V14.00,2013-08-08 03:33:00,
2013-08-07 23:38:00,82.5,76.1,29.94,South,176,0.0,5.0,81,0.00,,SCT024,0.00,0.00,VWS V14.00,2013-08-08 03:38:00,
2013-08-07 23:43:00,82.4,76.0,29.94,South,175,1.0,6.0,81,0.00,,SCT024,0.00,0.00,VWS V14.00,2013-08-08 03:43:00,
2013-08-07 23:48:00,82.4,76.0,29.93,South,175,0.0,4.0,81,0.00,,SCT024,0.00,0.00,VWS V14.00,2013-08-08 03:48:00,
2013-08-07 23:53:00,82.3,75.9,29.93,South,175,0.0,3.0,81,0.00,,SCT024,0.00,0.00,VWS V14.00,2013-08-08 03:53:00,
2013-08-07 23:58:00,82.4,76.0,29.93,South,175,3.0,6.0,81,0.00,,SCT024,0.00,0.00,VWS V14.00,2013-08-08 03:58:00,